Time;durP1;ratioP1;P1;durP2;ratioP2;P2;SDS_P1;SDS_P2;PMS_P1;PMS_P2;Temp;Humidity;BMP_temperature;BMP_pressure;BME280_temperature;BME280_humidity;BME280_pressure;Samples;Min_cycle;Max_cycle;Signal;HPM_P1;HPM_P2
2022/04/20 00:01:32;;;;;;;18.15;13.63;;;10.50;92.90;;;;;;5005702;28;20060;-72
2022/04/20 00:03:57;;;;;;;18.80;12.52;;;10.40;92.90;;;;;;4995785;28;20085;-72
2022/04/20 00:06:23;;;;;;;17.45;12.63;;;10.40;92.90;;;;;;4999661;28;20047;-72
2022/04/20 00:08:49;;;;;;;17.17;12.82;;;10.50;92.90;;;;;;5006963;28;20038;-72
2022/04/20 00:11:14;;;;;;;19.50;14.35;;;10.40;92.80;;;;;;5007555;28;20037;-72
2022/04/20 00:13:40;;;;;;;17.95;12.82;;;10.40;92.90;;;;;;5008711;28;20473;-72
2022/04/20 00:16:05;;;;;;;20.85;12.77;;;10.40;93.00;;;;;;5004842;28;20034;-72
2022/04/20 00:18:31;;;;;;;17.02;12.85;;;10.40;92.90;;;;;;5010458;28;20086;-72
2022/04/20 00:20:57;;;;;;;20.42;13.38;;;10.40;93.00;;;;;;5008519;28;20041;-72
2022/04/20 00:23:22;;;;;;;19.65;14.43;;;10.40;93.00;;;;;;5006625;28;20041;-72
2022/04/20 00:25:48;;;;;;;19.45;13.70;;;10.30;93.20;;;;;;5008090;28;20454;-72
2022/04/20 00:28:14;;;;;;;20.23;13.25;;;10.30;93.20;;;;;;5011085;28;20381;-72
2022/04/20 00:30:39;;;;;;;19.90;13.82;;;10.30;93.20;;;;;;5005573;28;20144;-72
2022/04/20 00:33:05;;;;;;;21.77;13.63;;;10.30;93.30;;;;;;4998463;28;20093;-72
2022/04/20 00:35:30;;;;;;;20.20;13.05;;;10.30;93.20;;;;;;5005305;28;20107;-72
2022/04/20 00:37:56;;;;;;;18.95;13.25;;;10.30;93.20;;;;;;5010201;28;20038;-72
2022/04/20 00:40:22;;;;;;;18.63;13.68;;;10.40;93.20;;;;;;5004497;28;20141;-72
2022/04/20 00:42:48;;;;;;;19.00;13.75;;;10.40;93.10;;;;;;5008154;28;20033;-72
2022/04/20 00:45:14;;;;;;;22.23;14.18;;;10.50;93.00;;;;;;5007960;28;20029;-72
2022/04/20 00:47:42;;;;;;;22.05;13.77;;;10.50;93.10;;;;;;5005561;28;20029;-72
2022/04/20 00:50:09;;;;;;;22.67;14.85;;;10.40;93.10;;;;;;5003734;28;20390;-72
2022/04/20 00:52:35;;;;;;;20.85;14.70;;;10.40;93.00;;;;;;5008056;28;20137;-72
2022/04/20 00:55:00;;;;;;;18.55;13.38;;;10.40;92.90;;;;;;5010546;28;20053;-72
2022/04/20 00:57:26;;;;;;;20.45;12.93;;;10.40;93.10;;;;;;5002185;28;20480;-72
2022/04/20 00:59:59;;;;;;;19.17;13.82;;;10.30;93.10;;;;;;5007662;28;20472;-72
2022/04/20 01:02:26;;;;;;;19.83;14.20;;;10.40;93.10;;;;;;5006387;28;20030;-72
2022/04/20 01:04:52;;;;;;;20.63;14.05;;;10.40;93.20;;;;;;4992116;28;20030;-72
2022/04/20 01:07:18;;;;;;;19.83;13.88;;;10.40;93.30;;;;;;5003097;28;20409;-72
2022/04/20 01:09:44;;;;;;;21.77;14.50;;;10.40;93.30;;;;;;5004992;28;20026;-72
2022/04/20 01:12:13;;;;;;;21.17;15.02;;;10.40;93.40;;;;;;5007108;28;20041;-72
2022/04/20 01:14:39;;;;;;;20.90;14.35;;;10.40;93.30;;;;;;5006786;28;20131;-72
2022/04/20 01:17:05;;;;;;;17.30;13.45;;;10.40;93.30;;;;;;5010261;28;20021;-72
2022/04/20 01:19:39;;;;;;;20.83;14.20;;;10.40;93.30;;;;;;5011918;28;20403;-72
2022/04/20 01:22:05;;;;;;;23.70;15.15;;;10.30;93.40;;;;;;5007149;28;20041;-72
2022/04/20 01:24:32;;;;;;;20.40;15.27;;;10.30;93.30;;;;;;5008118;28;20056;-72
2022/04/20 01:26:59;;;;;;;27.17;15.38;;;10.30;93.30;;;;;;5003700;28;20035;-72
2022/04/20 01:29:28;;;;;;;20.35;14.52;;;10.40;93.30;;;;;;5011553;28;20037;-72
2022/04/20 01:31:54;;;;;;;21.77;14.50;;;10.30;93.30;;;;;;4998939;28;20032;-72
2022/04/20 01:34:20;;;;;;;18.08;13.48;;;10.40;93.10;;;;;;5013181;28;20042;-72
2022/04/20 01:36:46;;;;;;;19.33;14.77;;;10.40;92.80;;;;;;5008499;28;20369;-72
2022/04/20 01:39:12;;;;;;;24.30;14.98;;;10.40;92.90;;;;;;5011939;28;20108;-72
2022/04/20 01:41:38;;;;;;;19.75;14.38;;;10.30;93.00;;;;;;5006513;28;20116;-72
2022/04/20 01:44:04;;;;;;;22.77;14.18;;;10.30;93.20;;;;;;5012678;28;20053;-72
2022/04/20 01:46:29;;;;;;;19.83;13.00;;;10.30;93.20;;;;;;5006477;28;20080;-72
2022/04/20 01:48:55;;;;;;;21.58;13.38;;;10.30;93.10;;;;;;5007295;28;20030;-72
2022/04/20 01:54:06;;;;;;;18.88;13.68;;;10.30;93.00;;;;;;5013233;28;20076;-72
2022/04/20 01:56:31;;;;;;;17.30;11.98;;;10.30;92.90;;;;;;5005461;28;20034;-72
2022/04/20 01:58:57;;;;;;;20.08;12.35;;;10.30;92.80;;;;;;5004734;28;20038;-72
2022/04/20 02:04:07;;;;;;;17.35;11.52;;;10.40;92.70;;;;;;5002655;28;20411;-72
2022/04/20 02:06:33;;;;;;;16.73;12.05;;;10.40;92.40;;;;;;5005963;28;20050;-72
2022/04/20 02:08:59;;;;;;;15.43;11.38;;;10.40;92.40;;;;;;5008075;28;20022;-72
2022/04/20 02:11:25;;;;;;;17.65;11.48;;;10.30;92.40;;;;;;4999876;28;20101;-72
2022/04/20 02:13:50;;;;;;;17.33;11.77;;;10.40;92.30;;;;;;5009731;28;20034;-72
2022/04/20 02:16:16;;;;;;;15.77;11.48;;;10.40;92.10;;;;;;5008599;28;20072;-72
2022/04/20 02:18:42;;;;;;;19.30;11.52;;;10.50;91.80;;;;;;5010482;28;20046;-72
2022/04/20 02:21:08;;;;;;;16.02;10.77;;;10.50;91.90;;;;;;5009047;28;20507;-72
2022/04/20 02:23:33;;;;;;;15.77;10.20;;;10.40;91.90;;;;;;5011051;28;20038;-73
2022/04/20 02:25:59;;;;;;;17.40;10.82;;;10.40;92.00;;;;;;5011069;28;20037;-72
2022/04/20 02:28:25;;;;;;;18.60;10.73;;;10.40;91.80;;;;;;5009826;28;20070;-72
2022/04/20 02:30:50;;;;;;;14.68;10.27;;;10.40;91.90;;;;;;5007973;28;20093;-72
2022/04/20 02:33:16;;;;;;;14.43;9.70;;;10.40;91.80;;;;;;5005758;28;20395;-72
2022/04/20 02:35:42;;;;;;;17.73;9.55;;;10.40;91.80;;;;;;5009322;28;20034;-72
2022/04/20 02:38:10;;;;;;;17.27;9.85;;;10.40;91.90;;;;;;5003300;28;20058;-72
2022/04/20 02:40:40;;;;;;;19.90;11.15;;;10.30;92.00;;;;;;4996440;28;20046;-72
2022/04/20 02:43:06;;;;;;;13.40;9.68;;;10.40;91.90;;;;;;5006273;28;20026;-72
2022/04/20 02:45:32;;;;;;;15.35;10.40;;;10.40;91.90;;;;;;5008937;28;20048;-72
2022/04/20 02:47:57;;;;;;;14.43;10.40;;;10.30;92.10;;;;;;4999675;28;20029;-72
2022/04/20 02:50:23;;;;;;;16.10;10.57;;;10.30;92.30;;;;;;5001594;28;20022;-72
2022/04/20 02:52:49;;;;;;;14.02;9.73;;;10.30;92.40;;;;;;5009624;28;20026;-72
2022/04/20 02:55:14;;;;;;;14.60;9.48;;;10.20;92.40;;;;;;5011798;28;20047;-72
2022/04/20 02:57:40;;;;;;;14.43;8.73;;;10.20;92.40;;;;;;5008953;28;20037;-72
2022/04/20 03:00:06;;;;;;;14.77;9.15;;;10.10;92.50;;;;;;4993102;28;20389;-72
2022/04/20 03:02:32;;;;;;;14.40;9.23;;;10.20;92.40;;;;;;5002590;28;20028;-71
2022/04/20 03:04:57;;;;;;;13.90;9.25;;;10.20;92.50;;;;;;4996524;28;20019;-72
2022/04/20 03:07:23;;;;;;;17.25;9.20;;;10.10;92.60;;;;;;4992297;28;20086;-72
2022/04/20 03:09:49;;;;;;;17.73;9.68;;;10.00;92.80;;;;;;5001460;28;20046;-71
2022/04/20 03:12:15;;;;;;;17.00;9.65;;;10.10;92.80;;;;;;5004547;28;20030;-72
2022/04/20 03:14:40;;;;;;;15.25;9.63;;;10.00;92.80;;;;;;5001295;28;20065;-71
2022/04/20 03:17:06;;;;;;;15.20;9.30;;;9.90;93.10;;;;;;4997547;28;20396;-72
2022/04/20 03:19:32;;;;;;;15.73;8.95;;;9.90;93.20;;;;;;5003410;28;20042;-71
2022/04/20 03:21:58;;;;;;;14.07;8.50;;;9.80;93.20;;;;;;5004222;28;20034;-71
2022/04/20 03:24:23;;;;;;;13.10;8.43;;;9.80;93.40;;;;;;4997485;28;20045;-71
2022/04/20 03:26:49;;;;;;;14.27;8.63;;;9.80;93.40;;;;;;5000532;28;20038;-71
2022/04/20 03:29:14;;;;;;;11.75;8.40;;;9.80;93.50;;;;;;5004293;28;20121;-71
2022/04/20 03:31:40;;;;;;;14.30;8.35;;;9.70;93.50;;;;;;4990559;28;20070;-71
2022/04/20 03:34:06;;;;;;;12.50;8.70;;;9.70;93.50;;;;;;5004911;28;20044;-71
2022/04/20 03:36:32;;;;;;;11.88;7.82;;;9.70;93.70;;;;;;5005880;28;20026;-72
2022/04/20 03:38:57;;;;;;;12.82;8.32;;;9.60;93.70;;;;;;5006296;28;20451;-71
2022/04/20 03:41:23;;;;;;;13.60;7.95;;;9.70;93.70;;;;;;4997898;28;20338;-71
2022/04/20 03:43:49;;;;;;;10.73;7.90;;;9.60;93.70;;;;;;5006828;28;20044;-71
2022/04/20 03:46:15;;;;;;;15.43;7.25;;;9.60;93.70;;;;;;4994993;28;20441;-71
2022/04/20 03:48:41;;;;;;;13.07;8.00;;;9.60;93.60;;;;;;5006749;28;20129;-72
2022/04/20 03:51:07;;;;;;;12.27;7.78;;;9.60;93.70;;;;;;5005508;28;20113;-71
2022/04/20 03:53:32;;;;;;;11.30;6.88;;;9.60;93.70;;;;;;4999736;28;20034;-72
2022/04/20 03:55:58;;;;;;;12.05;7.63;;;9.60;93.70;;;;;;5000874;28;20407;-72
2022/04/20 03:58:24;;;;;;;11.27;7.60;;;9.60;93.70;;;;;;4998418;28;20649;-72
2022/04/20 04:00:51;;;;;;;14.50;7.90;;;9.60;93.60;;;;;;4997651;28;20029;-72
2022/04/20 04:03:17;;;;;;;10.93;7.30;;;9.60;93.60;;;;;;5005474;28;20030;-71
2022/04/20 04:05:43;;;;;;;11.02;7.55;;;9.50;93.60;;;;;;4995395;28;20082;-72
2022/04/20 04:08:09;;;;;;;11.38;7.43;;;9.60;93.60;;;;;;4997569;28;20448;-72
2022/04/20 04:10:35;;;;;;;10.35;6.50;;;9.50;93.60;;;;;;4999043;28;20129;-72
2022/04/20 04:13:01;;;;;;;11.10;7.20;;;9.40;93.60;;;;;;5001015;28;20117;-71
2022/04/20 04:15:28;;;;;;;12.27;6.60;;;9.40;93.70;;;;;;5000513;28;20412;-71
2022/04/20 04:17:54;;;;;;;15.00;6.90;;;9.40;93.70;;;;;;5003572;28;20037;-71
2022/04/20 04:20:23;;;;;;;11.10;6.88;;;9.40;93.70;;;;;;4993656;28;20048;-72
2022/04/20 04:22:52;;;;;;;10.05;6.10;;;9.40;93.80;;;;;;5001593;28;20040;-71
2022/04/20 04:25:18;;;;;;;8.90;6.22;;;9.30;93.80;;;;;;4999314;28;20559;-71
2022/04/20 04:27:43;;;;;;;11.75;5.85;;;9.40;93.80;;;;;;4991403;28;20322;-71
2022/04/20 04:30:10;;;;;;;9.55;5.95;;;9.40;93.90;;;;;;4994983;28;20029;-71
2022/04/20 04:32:35;;;;;;;9.18;5.90;;;9.40;93.80;;;;;;5002797;28;20107;-72
2022/04/20 04:35:01;;;;;;;9.43;5.97;;;9.40;93.80;;;;;;5000572;28;20022;-72
2022/04/20 04:37:27;;;;;;;14.45;6.72;;;9.40;93.80;;;;;;5002851;28;20065;-71
2022/04/20 04:39:53;;;;;;;10.55;6.93;;;9.30;93.90;;;;;;4999598;28;20172;-71
2022/04/20 04:42:19;;;;;;;11.02;6.75;;;9.30;93.90;;;;;;5003119;28;20622;-71
2022/04/20 04:44:45;;;;;;;13.65;8.60;;;9.40;93.90;;;;;;4992763;28;20103;-71
2022/04/20 04:49:55;;;;;;;13.48;6.53;;;9.50;93.80;;;;;;4993206;28;20539;-71
2022/04/20 04:52:21;;;;;;;12.18;6.97;;;9.50;93.80;;;;;;5008395;28;20065;-71
2022/04/20 04:54:46;;;;;;;11.75;6.03;;;9.50;93.90;;;;;;5002532;28;20363;-71
2022/04/20 04:57:12;;;;;;;10.30;6.03;;;9.60;93.80;;;;;;4994310;28;20108;-71
2022/04/20 04:59:39;;;;;;;9.70;5.70;;;9.60;93.80;;;;;;5005541;28;20041;-71
2022/04/20 05:02:06;;;;;;;11.95;5.93;;;9.70;94.00;;;;;;5002022;28;20050;-71
2022/04/20 05:04:33;;;;;;;9.00;5.55;;;9.70;94.00;;;;;;5002861;28;20057;-71
2022/04/20 05:06:59;;;;;;;10.15;5.90;;;9.70;93.90;;;;;;4999858;28;20046;-72
2022/04/20 05:09:25;;;;;;;10.48;6.25;;;9.80;93.80;;;;;;5004584;28;20040;-72
2022/04/20 05:11:51;;;;;;;9.25;5.93;;;9.80;93.80;;;;;;5002806;28;20096;-72
2022/04/20 05:14:17;;;;;;;10.00;5.13;;;9.90;93.70;;;;;;5005309;28;20030;-72
2022/04/20 05:16:42;;;;;;;20.40;6.03;;;10.00;93.60;;;;;;5002402;28;20057;-71
2022/04/20 05:19:09;;;;;;;12.50;5.25;;;10.00;93.50;;;;;;4999210;28;20121;-71
2022/04/20 05:21:35;;;;;;;11.63;5.75;;;10.10;93.30;;;;;;4988620;28;20033;-71
2022/04/20 05:24:00;;;;;;;8.95;4.93;;;10.20;93.30;;;;;;4993785;28;20108;-70
2022/04/20 05:26:26;;;;;;;9.68;5.35;;;10.20;93.30;;;;;;4990803;28;20405;-71
2022/04/20 05:28:52;;;;;;;9.25;5.40;;;10.20;93.10;;;;;;4992421;28;20068;-71
2022/04/20 05:31:18;;;;;;;14.02;5.32;;;10.30;93.20;;;;;;5004961;28;20041;-71
2022/04/20 05:33:44;;;;;;;9.05;5.57;;;10.30;93.10;;;;;;4999353;28;20033;-71
2022/04/20 05:36:11;;;;;;;11.55;5.03;;;10.40;93.20;;;;;;5008020;28;20030;-72
2022/04/20 05:41:41;;;;;;;9.35;4.35;;;10.40;92.90;;;;;;4988614;28;20097;-71
2022/04/20 05:44:11;;;;;;;8.93;5.35;;;10.40;92.70;;;;;;4980247;28;20030;-71
2022/04/20 05:46:37;;;;;;;9.02;4.53;;;10.50;92.50;;;;;;4984763;28;20061;-72
2022/04/20 05:49:03;;;;;;;7.80;4.63;;;10.50;92.40;;;;;;4977036;28;20109;-72
2022/04/20 05:51:29;;;;;;;7.85;4.72;;;10.50;92.30;;;;;;4984328;28;20034;-72
2022/04/20 05:53:55;;;;;;;8.93;4.60;;;10.50;92.30;;;;;;4984922;28;20069;-71
2022/04/20 05:56:21;;;;;;;9.85;4.68;;;10.60;92.20;;;;;;5004366;28;20562;-72
2022/04/20 05:58:50;;;;;;;9.00;4.60;;;10.60;92.00;;;;;;5005529;28;20050;-72
2022/04/20 06:01:19;;;;;;;8.00;4.90;;;10.60;92.10;;;;;;5005050;28;20632;-72
2022/04/20 06:03:46;;;;;;;9.02;5.15;;;10.70;92.00;;;;;;5001707;28;20041;-72
2022/04/20 06:06:12;;;;;;;9.90;4.63;;;10.70;91.90;;;;;;5005752;28;20653;-71
2022/04/20 06:08:37;;;;;;;7.25;4.35;;;10.80;91.80;;;;;;5005585;28;20117;-71
2022/04/20 06:11:04;;;;;;;6.90;4.40;;;10.90;91.80;;;;;;5003216;28;20116;-71
2022/04/20 06:13:29;;;;;;;6.82;4.22;;;10.90;91.90;;;;;;4993515;28;20030;-72
2022/04/20 06:15:55;;;;;;;7.95;4.45;;;10.90;91.70;;;;;;5001245;28;20038;-71
2022/04/20 06:18:21;;;;;;;7.97;3.65;;;10.90;91.50;;;;;;5002652;28;20030;-71
2022/04/20 06:20:47;;;;;;;8.05;4.35;;;11.00;91.40;;;;;;5004693;28;20042;-71
2022/04/20 06:23:13;;;;;;;11.95;8.40;;;11.10;91.40;;;;;;5005654;28;20041;-71
2022/04/20 06:25:39;;;;;;;12.07;8.43;;;10.90;92.30;;;;;;4991167;28;20033;-71
2022/04/20 06:28:05;;;;;;;15.43;8.57;;;10.80;92.40;;;;;;5000600;28;20038;-72
2022/04/20 06:30:31;;;;;;;12.05;8.40;;;10.60;92.70;;;;;;4999163;28;20026;-71
2022/04/20 06:32:56;;;;;;;13.73;8.82;;;10.50;93.00;;;;;;5002839;28;20040;-71
2022/04/20 06:35:22;;;;;;;15.40;9.85;;;10.60;93.20;;;;;;4992663;28;20030;-72
2022/04/20 06:37:48;;;;;;;16.92;9.52;;;10.70;93.10;;;;;;4991004;28;20553;-72
2022/04/20 06:40:14;;;;;;;14.63;10.45;;;10.70;93.00;;;;;;4980408;28;20057;-72
2022/04/20 06:42:40;;;;;;;17.65;10.15;;;10.80;94.10;;;;;;4992138;28;20026;-72
2022/04/20 06:45:07;;;;;;;15.27;10.50;;;11.00;93.80;;;;;;4988059;28;20082;-69
2022/04/20 06:47:33;;;;;;;19.83;11.70;;;10.70;94.00;;;;;;4989337;28;20042;-71
2022/04/20 06:49:59;;;;;;;14.40;10.05;;;10.60;94.00;;;;;;4995322;28;20095;-71
2022/04/20 07:00:39;;;;;;;10.65;7.70;;;11.10;92.40;;;;;;4995906;28;20631;-71
2022/04/20 07:03:08;;;;;;;13.52;9.43;;;11.20;92.30;;;;;;4991198;28;20033;-71
2022/04/20 07:05:35;;;;;;;15.32;8.55;;;11.10;92.30;;;;;;4986155;28;20132;-71
2022/04/20 07:08:01;;;;;;;13.77;8.60;;;11.10;92.20;;;;;;4986495;28;20040;-70
2022/04/20 07:10:27;;;;;;;15.10;9.40;;;11.10;92.40;;;;;;4998493;28;20041;-70
2022/04/20 07:12:53;;;;;;;15.93;8.77;;;11.20;92.20;;;;;;5004341;28;20029;-70
2022/04/20 07:15:19;;;;;;;11.95;8.18;;;11.20;91.90;;;;;;5004355;28;20393;-70
2022/04/20 07:17:46;;;;;;;15.80;8.73;;;11.20;91.80;;;;;;5001437;28;20038;-70
2022/04/20 07:20:17;;;;;;;18.67;9.55;;;11.40;91.80;;;;;;4993971;28;20046;-70
2022/04/20 07:22:50;;;;;;;16.33;10.00;;;11.50;92.40;;;;;;5000822;28;20224;-70
2022/04/20 07:25:17;;;;;;;13.55;8.60;;;11.70;92.30;;;;;;4992984;28;20518;-70
2022/04/20 07:27:45;;;;;;;15.32;9.75;;;11.70;91.80;;;;;;5003767;28;20140;-70
2022/04/20 07:30:11;;;;;;;13.10;9.82;;;11.80;92.60;;;;;;4990562;28;20018;-70
2022/04/20 07:32:37;;;;;;;12.75;8.30;;;11.90;92.70;;;;;;4997296;28;20081;-70
2022/04/20 07:35:03;;;;;;;14.95;8.07;;;12.00;92.40;;;;;;4979659;28;20522;-70
2022/04/20 07:37:28;;;;;;;13.23;8.32;;;12.20;92.40;;;;;;4981149;28;20022;-69
2022/04/20 07:39:54;;;;;;;12.38;7.45;;;12.10;91.60;;;;;;4994015;28;20038;-70
2022/04/20 07:42:23;;;;;;;11.68;7.93;;;11.90;91.00;;;;;;4997610;28;20480;-69
2022/04/20 07:44:48;;;;;;;10.65;7.65;;;12.00;90.90;;;;;;5006569;28;20068;-69
2022/04/20 07:47:14;;;;;;;14.77;7.32;;;12.20;91.10;;;;;;5006071;28;20626;-70
2022/04/20 07:52:24;;;;;;;12.85;7.60;;;12.00;90.90;;;;;;5006167;28;20772;-70
2022/04/20 07:54:50;;;;;;;12.30;6.60;;;12.20;91.30;;;;;;4999733;28;20030;-69
2022/04/20 07:57:16;;;;;;;9.10;6.72;;;12.30;91.10;;;;;;5001238;28;20960;-70
2022/04/20 07:59:42;;;;;;;15.60;7.90;;;12.30;91.10;;;;;;4996972;28;20105;-70
2022/04/20 08:02:08;;;;;;;11.32;7.07;;;12.20;91.40;;;;;;4997644;28;20030;-69
2022/04/20 08:04:34;;;;;;;16.20;7.53;;;12.00;91.80;;;;;;4999893;28;20048;-69
2022/04/20 08:07:00;;;;;;;7.78;5.40;;;12.00;91.70;;;;;;4993478;28;20046;-69
2022/04/20 08:09:25;;;;;;;8.65;5.40;;;12.10;90.30;;;;;;5001976;28;20073;-70
2022/04/20 08:11:51;;;;;;;9.52;5.38;;;12.10;90.20;;;;;;4996555;28;20419;-70
2022/04/20 08:14:17;;;;;;;8.55;4.45;;;12.20;90.90;;;;;;5000270;28;20044;-70
2022/04/20 08:16:43;;;;;;;8.85;4.10;;;12.20;89.20;;;;;;5002154;28;20038;-70
2022/04/20 08:19:10;;;;;;;9.80;3.75;;;12.20;88.20;;;;;;5003774;28;20038;-70
2022/04/20 08:21:36;;;;;;;5.43;3.17;;;12.20;87.40;;;;;;5007130;28;20029;-69
2022/04/20 08:24:01;;;;;;;5.38;2.85;;;12.20;86.90;;;;;;5007590;28;20030;-69
2022/04/20 08:26:27;;;;;;;6.50;3.50;;;12.30;87.80;;;;;;5013008;28;20026;-70
2022/04/20 08:28:53;;;;;;;7.97;3.13;;;12.20;86.30;;;;;;5010344;28;20661;-70
2022/04/20 08:31:18;;;;;;;6.10;2.80;;;12.20;86.30;;;;;;5010318;28;20038;-70
2022/04/20 08:33:44;;;;;;;6.88;3.35;;;12.20;85.60;;;;;;5012363;28;20113;-70
2022/04/20 08:36:13;;;;;;;8.18;3.00;;;12.10;86.00;;;;;;5012976;28;20030;-70
2022/04/20 08:38:39;;;;;;;7.85;3.28;;;12.00;85.60;;;;;;5007449;28;20376;-70
2022/04/20 08:41:06;;;;;;;6.63;2.78;;;12.10;85.70;;;;;;5012631;28;20510;-70
2022/04/20 08:43:32;;;;;;;5.00;2.90;;;12.10;85.60;;;;;;5012513;28;20030;-70
2022/04/20 08:46:01;;;;;;;6.78;3.20;;;12.30;85.70;;;;;;5010272;28;20061;-70
2022/04/20 08:48:28;;;;;;;7.07;3.42;;;12.40;85.70;;;;;;5008479;28;20045;-69
2022/04/20 08:50:54;;;;;;;7.68;4.00;;;12.50;85.60;;;;;;5011266;28;20053;-69
2022/04/20 08:53:21;;;;;;;11.95;5.13;;;12.50;86.30;;;;;;5004935;28;20115;-70
2022/04/20 08:55:47;;;;;;;10.15;4.40;;;12.40;87.60;;;;;;5008694;28;20142;-69
2022/04/20 08:58:13;;;;;;;8.05;3.95;;;12.40;88.10;;;;;;5012635;28;20038;-70
2022/04/20 09:00:40;;;;;;;8.77;5.57;;;12.50;86.00;;;;;;5004292;28;20480;-70
2022/04/20 09:03:05;;;;;;;10.00;5.43;;;12.60;87.10;;;;;;5006142;28;20037;-70
2022/04/20 09:05:33;;;;;;;10.50;6.95;;;12.70;88.10;;;;;;5008347;28;20113;-70
2022/04/20 09:08:08;;;;;;;12.35;7.65;;;12.70;88.30;;;;;;5004751;28;20046;-70
2022/04/20 09:10:36;;;;;;;10.70;7.95;;;12.70;90.00;;;;;;5012489;28;20021;-70
2022/04/20 09:13:07;;;;;;;15.60;8.15;;;12.40;90.40;;;;;;5011260;28;20092;-69
2022/04/20 09:15:35;;;;;;;14.63;7.90;;;12.40;90.90;;;;;;5009585;28;20843;-70
2022/04/20 09:18:04;;;;;;;11.10;7.60;;;12.30;90.90;;;;;;5012151;28;20045;-69
2022/04/20 09:20:32;;;;;;;13.07;7.70;;;12.30;91.00;;;;;;5005368;28;20104;-70
2022/04/20 09:23:09;;;;;;;11.90;7.55;;;12.40;90.90;;;;;;5012180;28;20037;-70
2022/04/20 09:25:36;;;;;;;11.38;6.78;;;12.40;90.70;;;;;;5002059;28;20038;-70
2022/04/20 09:28:08;;;;;;;11.75;7.20;;;12.50;90.40;;;;;;5011788;28;20109;-70
2022/04/20 09:30:38;;;;;;;11.35;6.20;;;12.50;90.20;;;;;;5011637;28;20100;-70
2022/04/20 09:33:07;;;;;;;10.13;6.38;;;12.50;90.30;;;;;;5008840;28;20472;-69
2022/04/20 09:35:53;;;;;;;10.55;6.72;;;12.50;90.20;;;;;;5009054;28;20085;-70
2022/04/20 09:38:20;;;;;;;11.25;6.65;;;12.40;90.30;;;;;;5001789;28;20408;-69
2022/04/20 09:40:46;;;;;;;10.80;6.05;;;12.70;90.30;;;;;;5008881;28;20049;-69
2022/04/20 09:43:21;;;;;;;11.50;7.43;;;12.80;90.20;;;;;;5009044;28;20099;-69
2022/04/20 09:46:03;;;;;;;;;;;12.70;90.30;;;;;;5008910;28;20030;-70
2022/04/20 09:51:20;;;;;;;10.43;5.40;;;12.70;90.00;;;;;;4996822;28;20142;-69
2022/04/20 09:53:49;;;;;;;8.63;5.43;;;12.70;89.30;;;;;;4994878;28;20054;-70
2022/04/20 09:56:23;;;;;;;9.80;6.07;;;12.60;89.50;;;;;;5003970;28;20034;-70
2022/04/20 09:59:00;;;;;;;9.13;5.57;;;12.60;90.00;;;;;;4998647;28;20046;-69
2022/04/20 10:01:27;;;;;;;10.18;5.75;;;12.50;89.50;;;;;;4995771;28;20097;-69
2022/04/20 10:03:54;;;;;;;10.18;5.28;;;12.50;89.70;;;;;;4995226;28;20049;-69
2022/04/20 10:06:21;;;;;;;9.63;4.95;;;12.60;89.30;;;;;;4998600;28;20192;-69
2022/04/20 10:08:46;;;;;;;10.48;5.10;;;12.80;90.00;;;;;;5003954;28;20116;-70
2022/04/20 10:11:14;;;;;;;13.82;4.80;;;12.90;88.70;;;;;;5003715;28;20136;-70
2022/04/20 10:13:41;;;;;;;8.68;4.63;;;12.90;88.80;;;;;;5007049;28;20145;-70
2022/04/20 10:16:10;;;;;;;10.93;4.70;;;13.00;88.30;;;;;;5006780;28;20038;-69
2022/04/20 10:18:50;;;;;;;7.97;4.60;;;13.30;86.90;;;;;;5007611;28;20059;-70
2022/04/20 10:21:15;;;;;;;12.27;4.97;;;13.20;87.10;;;;;;5008505;28;20140;-69
2022/04/20 10:23:47;;;;;;;10.05;4.93;;;13.20;86.40;;;;;;5006705;28;20125;-69
2022/04/20 10:26:14;;;;;;;9.48;4.70;;;13.20;86.70;;;;;;5007451;28;20042;-70
2022/04/20 10:29:30;;;;;;;7.78;4.50;;;13.60;86.40;;;;;;5000530;28;20072;-69
2022/04/20 10:32:07;;;;;;;8.82;4.95;;;13.60;87.30;;;;;;4985029;28;20042;-70
2022/04/20 10:34:34;;;;;;;8.45;5.82;;;13.30;86.20;;;;;;5005296;28;20046;-69
2022/04/20 10:37:04;;;;;;;17.63;7.53;;;13.30;87.70;;;;;;5006194;28;20033;-70
2022/04/20 10:39:39;;;;;;;7.82;5.60;;;13.40;88.10;;;;;;5008026;28;20038;-70
2022/04/20 10:42:19;;;;;;;14.27;5.47;;;13.60;85.70;;;;;;5007939;28;20040;-69
2022/04/20 10:45:01;;;;;;;15.80;4.70;;;13.60;86.10;;;;;;5007017;28;20042;-69
2022/04/20 10:47:38;;;;;;;8.43;5.00;;;13.70;85.50;;;;;;5003212;28;20022;-70
2022/04/20 10:50:16;;;;;;;6.97;4.40;;;14.00;85.10;;;;;;5008136;28;20026;-69
2022/04/20 10:52:52;;;;;;;7.95;4.70;;;13.80;83.80;;;;;;4996556;28;20092;-70
2022/04/20 10:55:24;;;;;;;7.78;4.78;;;14.00;83.60;;;;;;4996623;28;20022;-69
2022/04/20 10:57:54;;;;;;;6.60;4.03;;;13.90;82.40;;;;;;5003098;28;20036;-69
2022/04/20 11:00:20;;;;;;;5.80;4.22;;;13.70;82.90;;;;;;5007049;28;20365;-70
2022/04/20 11:03:06;;;;;;;17.85;5.57;;;14.10;83.60;;;;;;5002609;28;20050;-69
2022/04/20 11:05:33;;;;;;;11.18;4.72;;;14.20;83.80;;;;;;5004093;28;20045;-70
2022/04/20 11:08:14;;;;;;;11.15;4.85;;;14.20;83.80;;;;;;5007502;28;20041;-70
2022/04/20 11:19:52;;;;;;;7.07;5.00;;;14.10;83.50;;;;;;5002924;28;20053;-70
2022/04/20 11:22:18;;;;;;;6.68;4.28;;;14.20;84.20;;;;;;5001039;28;20048;-70
2022/04/20 11:24:44;;;;;;;11.30;3.90;;;14.10;83.30;;;;;;5007129;28;20556;-70
2022/04/20 11:27:11;;;;;;;9.30;4.03;;;14.10;82.90;;;;;;5006603;28;20116;-70
2022/04/20 11:29:37;;;;;;;7.88;4.90;;;14.30;82.40;;;;;;5000412;28;20033;-70
2022/04/20 11:32:05;;;;;;;7.90;4.78;;;14.00;82.10;;;;;;5006785;28;20056;-70
2022/04/20 11:34:35;;;;;;;8.48;5.10;;;13.90;83.40;;;;;;5004482;28;20064;-70
2022/04/20 11:37:03;;;;;;;11.38;5.38;;;14.20;83.80;;;;;;4998440;28;20353;-70
2022/04/20 11:39:30;;;;;;;9.52;4.65;;;14.30;82.70;;;;;;4994792;28;20142;-71
2022/04/20 11:42:01;;;;;;;12.85;9.07;;;14.30;81.90;;;;;;4998139;28;20076;-71
2022/04/20 11:44:28;;;;;;;12.07;6.93;;;14.10;82.50;;;;;;5006304;28;20049;-72
2022/04/20 11:47:00;;;;;;;8.80;6.03;;;14.40;82.00;;;;;;5002584;28;20120;-72
2022/04/20 11:49:33;;;;;;;10.40;6.82;;;14.50;82.40;;;;;;4992840;28;20413;-72
2022/04/20 11:52:00;;;;;;;23.08;12.18;;;14.30;83.10;;;;;;4981794;28;20108;-72
2022/04/20 11:54:30;;;;;;;10.00;5.25;;;14.00;81.90;;;;;;4988199;28;20532;-72
2022/04/20 11:56:56;;;;;;;9.52;5.18;;;14.00;82.00;;;;;;5002290;28;20500;-71
2022/04/20 11:59:24;;;;;;;9.27;4.35;;;14.10;81.90;;;;;;5003032;28;20038;-72
2022/04/20 12:01:50;;;;;;;10.85;5.43;;;14.20;82.40;;;;;;5004037;28;20044;-72
2022/04/20 12:04:21;;;;;;;9.05;4.68;;;14.10;82.20;;;;;;5003250;28;20037;-72
2022/04/20 12:06:55;;;;;;;7.68;4.03;;;14.00;81.90;;;;;;5003228;28;20054;-72
2022/04/20 12:09:26;;;;;;;10.02;4.65;;;14.40;83.10;;;;;;5003837;28;20040;-72
2022/04/20 12:11:52;;;;;;;9.35;4.38;;;14.60;81.80;;;;;;4999316;28;20038;-72
2022/04/20 12:14:19;;;;;;;6.57;4.63;;;14.30;82.40;;;;;;4998865;28;20030;-72
2022/04/20 12:16:48;;;;;;;6.57;3.80;;;14.30;81.60;;;;;;4997869;28;20038;-72
2022/04/20 12:19:14;;;;;;;7.90;4.00;;;14.30;82.00;;;;;;5002641;28;20113;-72
2022/04/20 12:21:47;;;;;;;19.75;4.22;;;14.30;82.10;;;;;;5003793;28;20447;-72
2022/04/20 12:24:25;;;;;;;7.93;3.60;;;14.20;82.60;;;;;;4997073;28;20030;-72
2022/04/20 12:26:52;;;;;;;10.30;3.85;;;14.20;82.20;;;;;;5001615;28;20073;-72
2022/04/20 12:29:23;;;;;;;7.88;4.50;;;14.20;81.90;;;;;;4994530;28;20030;-72
2022/04/20 12:31:51;;;;;;;6.63;3.97;;;14.20;82.20;;;;;;4989463;28;20030;-72
2022/04/20 12:34:19;;;;;;;7.85;3.83;;;14.30;82.00;;;;;;4994446;28;20037;-72
2022/04/20 12:37:00;;;;;;;9.38;4.55;;;14.10;82.50;;;;;;5001932;28;20490;-72
2022/04/20 12:39:46;;;;;;;17.65;9.50;;;14.30;81.90;;;;;;5003057;28;20407;-72
2022/04/20 12:42:13;;;;;;;33.20;17.75;;;14.10;81.40;;;;;;5002613;28;20045;-72
2022/04/20 12:44:47;;;;;;;8.40;4.35;;;14.20;81.00;;;;;;4995529;28;20887;-72
2022/04/20 12:47:16;;;;;;;10.95;5.95;;;14.20;80.80;;;;;;5001112;28;20065;-72
2022/04/20 12:50:00;;;;;;;11.65;7.50;;;14.30;80.80;;;;;;5003072;28;20033;-72
2022/04/20 12:52:29;;;;;;;11.35;5.75;;;15.00;81.50;;;;;;5003142;28;20037;-72
2022/04/20 12:55:08;;;;;;;12.68;6.20;;;15.10;79.70;;;;;;5003471;28;20036;-72
2022/04/20 13:02:01;;;;;;;10.68;4.72;;;15.90;79.70;;;;;;5002762;28;20053;-72
2022/04/20 13:03:35;;;;;;;7.25;4.03;;;15.90;79.30;;;;;;4996412;28;20042;-72
2022/04/20 13:06:01;;;;;;;10.85;6.00;;;15.40;79.10;;;;;;5003006;28;20081;-72
2022/04/20 13:08:27;;;;;;;7.68;4.13;;;15.00;79.20;;;;;;4998678;28;20030;-72
2022/04/20 13:10:53;;;;;;;6.50;4.18;;;15.00;80.30;;;;;;5004107;28;20034;-72
2022/04/20 13:13:29;;;;;;;10.88;4.45;;;14.90;79.80;;;;;;4998421;28;20034;-72
2022/04/20 13:15:55;;;;;;;7.07;4.20;;;15.00;80.00;;;;;;5001498;28;20606;-72
2022/04/20 13:18:21;;;;;;;8.30;5.32;;;14.80;79.70;;;;;;5001147;28;20033;-72